createdAt,value
2022-12-01T00:01:01.788Z,31.11
2022-12-01T00:02:33.342Z,33.86
2022-12-01T00:04:04.780Z,35.81
2022-12-01T00:05:36.067Z,37.07
2022-12-01T00:07:07.489Z,38.10
2022-12-01T00:08:38.796Z,34.54
2022-12-01T00:10:10.279Z,34.97
2022-12-01T00:11:41.553Z,34.16
2022-12-01T00:13:12.858Z,33.40
2022-12-01T00:14:44.205Z,30.03
2022-12-01T00:16:15.637Z,29.32
2022-12-01T00:17:47.053Z,33.75
2022-12-01T00:19:18.322Z,37.24
2022-12-01T00:20:50.176Z,34.95
2022-12-01T00:22:24.173Z,37.61
2022-12-01T00:23:55.765Z,37.66
2022-12-01T00:25:27.032Z,39.59
2022-12-01T00:26:58.588Z,39.86
2022-12-01T00:28:30.665Z,38.24
2022-12-01T00:30:01.902Z,34.57
2022-12-01T00:31:39.343Z,35.68
2022-12-01T00:33:10.607Z,36.56
2022-12-01T00:34:41.984Z,39.28
2022-12-01T00:36:13.313Z,40.26
2022-12-01T00:37:54.521Z,40.62
2022-12-01T00:39:26.090Z,39.74
2022-12-01T00:40:57.375Z,40.29
2022-12-01T00:42:28.915Z,40.53
2022-12-01T00:44:00.363Z,39.79
2022-12-01T00:45:31.653Z,41.07
2022-12-01T00:47:03.222Z,42.23
2022-12-01T00:48:34.973Z,39.85
2022-12-01T00:50:06.253Z,38.89
2022-12-01T00:51:37.934Z,36.34
2022-12-01T00:53:09.275Z,37.94
2022-12-01T00:54:40.587Z,38.09
2022-12-01T00:56:11.819Z,38.93
2022-12-01T00:57:43.184Z,36.38
2022-12-01T00:59:14.622Z,40.15
2022-12-01T01:00:45.935Z,38.77
2022-12-01T01:02:17.264Z,40.91
2022-12-01T01:03:49.034Z,41.30
2022-12-01T01:05:20.402Z,42.35
2022-12-01T01:06:51.762Z,41.22
2022-12-01T01:08:23.232Z,40.78
2022-12-01T01:09:54.488Z,40.53
2022-12-01T01:11:25.874Z,40.06
2022-12-01T01:12:57.364Z,40.66
2022-12-01T01:14:28.675Z,42.07
2022-12-01T01:16:00.420Z,42.53
2022-12-01T01:17:31.789Z,41.03
2022-12-01T01:19:03.047Z,41.88
2022-12-01T01:20:34.470Z,39.07
2022-12-01T01:22:05.829Z,34.26
2022-12-01T01:23:37.034Z,33.53
2022-12-01T01:25:08.588Z,35.19
2022-12-01T01:26:39.944Z,33.70
2022-12-01T01:28:11.686Z,32.82
2022-12-01T01:29:42.991Z,31.02
2022-12-01T01:31:14.496Z,31.36
2022-12-01T01:32:45.774Z,32.09
2022-12-01T01:34:17.184Z,33.05
2022-12-01T01:35:48.416Z,28.90
2022-12-01T01:37:19.818Z,32.04
2022-12-01T01:38:51.246Z,32.82
2022-12-01T01:40:22.609Z,30.29
2022-12-01T01:41:54.509Z,30.41
2022-12-01T01:43:25.850Z,28.01
2022-12-01T01:44:57.393Z,30.96
2022-12-01T01:46:28.740Z,30.39
2022-12-01T01:48:00.306Z,30.73
2022-12-01T01:49:31.804Z,29.75
2022-12-01T01:51:03.399Z,29.15
2022-12-01T01:52:34.788Z,28.96
2022-12-01T01:54:06.229Z,30.48
2022-12-01T01:55:37.492Z,30.95
2022-12-01T01:57:09.470Z,31.16
2022-12-01T01:58:40.808Z,31.86
2022-12-01T02:00:11.992Z,31.69
2022-12-01T02:01:43.270Z,31.71
2022-12-01T02:03:14.940Z,30.17
2022-12-01T02:04:46.321Z,31.33
2022-12-01T02:06:17.543Z,32.72
2022-12-01T02:07:49.049Z,33.76
2022-12-01T02:09:20.582Z,30.53
2022-12-01T02:10:51.932Z,30.37
2022-12-01T02:12:23.243Z,31.16
2022-12-01T02:13:54.749Z,31.94
2022-12-01T02:15:26.101Z,33.38
2022-12-01T02:16:57.569Z,31.75
2022-12-01T02:18:28.890Z,30.98
2022-12-01T02:20:00.164Z,26.96
2022-12-01T02:21:31.518Z,30.14
2022-12-01T02:23:02.744Z,29.03
2022-12-01T02:24:34.187Z,29.74
2022-12-01T02:26:05.491Z,28.30
2022-12-01T02:27:36.878Z,28.65
2022-12-01T02:29:13.284Z,28.54
2022-12-01T02:30:44.815Z,29.73
2022-12-01T02:32:16.181Z,28.83
2022-12-01T02:33:47.424Z,31.00
2022-12-01T02:35:18.673Z,28.85
2022-12-01T02:36:59.933Z,29.22
2022-12-01T02:38:36.381Z,29.13
2022-12-01T02:40:07.886Z,30.54
2022-12-01T02:41:39.256Z,28.76
2022-12-01T02:43:10.800Z,29.66
2022-12-01T02:44:42.163Z,30.40
2022-12-01T02:46:13.523Z,28.79
2022-12-01T02:47:44.794Z,26.20
2022-12-01T02:49:16.164Z,27.13
2022-12-01T02:50:47.732Z,25.88
2022-12-01T02:52:19.200Z,27.25
2022-12-01T02:53:50.645Z,25.58
2022-12-01T02:55:21.978Z,27.56
2022-12-01T02:56:58.751Z,27.34
2022-12-01T02:58:30.163Z,26.19
2022-12-01T03:00:01.602Z,27.35
2022-12-01T03:01:33.012Z,25.47
2022-12-01T03:03:09.701Z,28.04
2022-12-01T03:04:46.898Z,28.49
2022-12-01T03:06:18.289Z,29.23
2022-12-01T03:07:49.795Z,29.03
2022-12-01T03:09:21.251Z,29.23
2022-12-01T03:10:52.639Z,30.00
2022-12-01T03:12:23.985Z,31.35
2022-12-01T03:13:55.406Z,31.19
2022-12-01T03:15:31.988Z,32.40
2022-12-01T03:17:08.391Z,36.80
2022-12-01T03:18:59.768Z,37.93
2022-12-01T03:20:31.208Z,39.37
2022-12-01T03:22:02.545Z,40.03
2022-12-01T03:23:33.806Z,38.54
2022-12-01T03:25:05.157Z,37.19
2022-12-01T03:26:36.756Z,35.98
2022-12-01T03:28:21.511Z,34.40
2022-12-01T03:29:58.790Z,34.65
2022-12-01T03:31:35.201Z,33.22
2022-12-01T03:33:06.507Z,31.35
2022-12-01T03:34:37.882Z,28.13
2022-12-01T03:36:09.494Z,32.48
2022-12-01T03:37:40.997Z,32.13
2022-12-01T03:39:12.194Z,30.70
2022-12-01T03:40:48.497Z,32.99
2022-12-01T03:42:21.028Z,35.69
2022-12-01T03:43:52.264Z,35.27
2022-12-01T03:45:23.625Z,34.54
2022-12-01T03:46:56.102Z,34.21
2022-12-01T03:48:32.622Z,34.89
2022-12-01T03:50:04.405Z,34.72
2022-12-01T03:51:35.958Z,35.76
2022-12-01T03:53:07.265Z,36.17
2022-12-01T03:54:38.544Z,38.62
2022-12-01T03:56:09.850Z,37.81
2022-12-01T03:57:41.050Z,38.81
2022-12-01T03:59:12.380Z,38.74
2022-12-01T04:00:43.770Z,39.74
2022-12-01T04:02:15.347Z,38.81
2022-12-01T04:03:56.915Z,38.52
2022-12-01T04:05:28.886Z,35.17
2022-12-01T04:07:00.211Z,31.10
2022-12-01T04:08:31.461Z,30.49
2022-12-01T04:10:02.892Z,31.59
2022-12-01T04:11:34.131Z,31.69
2022-12-01T04:13:05.823Z,30.80
2022-12-01T04:14:37.489Z,30.57
2022-12-01T04:16:09.663Z,31.54
2022-12-01T04:17:41.215Z,32.81
2022-12-01T04:19:12.723Z,32.93
2022-12-01T04:20:44.172Z,33.56
2022-12-01T04:22:15.811Z,34.13
2022-12-01T04:23:53.240Z,35.92
2022-12-01T04:25:24.581Z,32.09
2022-12-01T04:26:56.296Z,36.84
2022-12-01T04:28:27.613Z,36.32
2022-12-01T04:30:05.181Z,40.63
2022-12-01T04:31:36.623Z,38.31
2022-12-01T04:33:07.961Z,40.01
2022-12-01T04:34:39.495Z,40.01
2022-12-01T04:36:10.810Z,39.01
2022-12-01T04:37:42.212Z,33.64
2022-12-01T04:39:13.413Z,34.63
2022-12-01T04:40:44.592Z,33.28
2022-12-01T04:42:16.169Z,30.47
2022-12-01T04:43:47.477Z,29.97
2022-12-01T04:45:20.424Z,29.58
2022-12-01T04:46:51.809Z,27.86
2022-12-01T04:48:23.618Z,31.32
2022-12-01T04:49:55.250Z,29.31
2022-12-01T04:51:26.544Z,26.32
2022-12-01T04:52:58.274Z,30.23
2022-12-01T04:54:29.619Z,26.35
2022-12-01T04:56:01.035Z,24.45
2022-12-01T04:57:32.426Z,24.71
2022-12-01T04:59:03.645Z,22.29
2022-12-01T05:00:34.991Z,21.62
2022-12-01T05:02:06.543Z,25.55
2022-12-01T05:03:38.314Z,28.45
2022-12-01T05:05:09.621Z,27.20
2022-12-01T05:06:41.144Z,30.41
2022-12-01T05:08:12.616Z,30.66
2022-12-01T05:09:43.996Z,31.18
2022-12-01T05:11:15.452Z,31.31
2022-12-01T05:12:52.319Z,29.21
2022-12-01T05:14:23.651Z,26.93
2022-12-01T05:15:55.232Z,30.58
2022-12-01T05:17:35.521Z,29.51
2022-12-01T05:19:09.299Z,27.94
2022-12-01T05:20:40.697Z,26.26
2022-12-01T05:22:12.150Z,27.92
2022-12-01T05:23:43.448Z,32.01
2022-12-01T05:25:15.179Z,31.26
2022-12-01T05:27:09.384Z,29.46
2022-12-01T05:28:41.091Z,30.14
2022-12-01T05:30:12.485Z,29.00
2022-12-01T05:31:44.089Z,29.52
2022-12-01T05:33:15.484Z,34.51
2022-12-01T05:34:46.973Z,34.27
2022-12-01T05:36:18.677Z,28.82
2022-12-01T05:37:50.000Z,32.96
2022-12-01T05:39:21.436Z,33.22
2022-12-01T05:40:53.000Z,32.11
2022-12-01T05:42:24.251Z,32.89
2022-12-01T05:43:55.712Z,33.87
2022-12-01T05:45:27.102Z,33.24
2022-12-01T05:46:58.504Z,31.87
2022-12-01T05:48:29.896Z,32.19
2022-12-01T05:50:05.580Z,33.38
2022-12-01T05:51:37.084Z,31.32
2022-12-01T05:53:08.496Z,26.70
2022-12-01T05:54:39.775Z,30.71
2022-12-01T05:56:10.993Z,32.19
2022-12-01T05:57:42.284Z,32.56
2022-12-01T05:59:13.462Z,31.70
2022-12-01T06:00:46.194Z,31.88
2022-12-01T06:02:17.661Z,29.83
2022-12-01T06:03:49.025Z,29.82
2022-12-01T06:05:20.417Z,32.23
2022-12-01T06:06:51.686Z,31.30
2022-12-01T06:08:23.094Z,30.07
2022-12-01T06:09:54.489Z,33.38
2022-12-01T06:11:26.000Z,33.61
2022-12-01T06:12:57.374Z,32.11
2022-12-01T06:14:28.718Z,33.59
2022-12-01T06:16:01.163Z,35.77
2022-12-01T06:17:37.002Z,37.04
2022-12-01T06:19:45.974Z,29.50
2022-12-01T06:21:17.622Z,33.36
2022-12-01T06:23:10.549Z,37.53
2022-12-01T06:24:42.117Z,35.18
2022-12-01T06:26:23.569Z,35.47
2022-12-01T06:28:04.972Z,36.93
2022-12-01T06:29:48.541Z,37.32
2022-12-01T06:31:22.664Z,39.73
2022-12-01T06:32:53.944Z,37.93
2022-12-01T06:34:25.575Z,33.62
2022-12-01T06:36:30.957Z,36.03
2022-12-01T06:38:13.323Z,34.66
2022-12-01T06:39:45.167Z,26.79
2022-12-01T06:41:26.417Z,32.45
2022-12-01T06:42:58.030Z,32.02
2022-12-01T06:44:29.447Z,34.64
2022-12-01T06:46:02.157Z,30.84
2022-12-01T06:47:33.816Z,24.48
2022-12-01T06:49:05.347Z,29.17
2022-12-01T06:51:14.065Z,34.44
2022-12-01T06:52:54.291Z,30.18
2022-12-01T06:54:25.723Z,26.48
2022-12-01T06:55:57.083Z,29.88
2022-12-01T06:57:28.402Z,26.48
2022-12-01T06:59:00.763Z,29.59
2022-12-01T07:00:32.412Z,24.26
2022-12-01T07:02:03.794Z,30.13
2022-12-01T07:03:35.083Z,34.26
2022-12-01T07:05:06.394Z,30.63
2022-12-01T07:06:37.789Z,33.60
2022-12-01T07:08:09.020Z,33.65
2022-12-01T07:09:40.449Z,36.10
2022-12-01T07:11:11.779Z,29.33
2022-12-01T07:12:43.259Z,31.27
2022-12-01T07:14:14.535Z,30.20
2022-12-01T07:15:45.843Z,32.82
2022-12-01T07:17:17.170Z,32.20
2022-12-01T07:18:48.500Z,32.77
2022-12-01T07:20:19.731Z,32.19
2022-12-01T07:21:51.087Z,32.01
2022-12-01T07:23:22.621Z,33.61
2022-12-01T07:24:53.973Z,29.91
2022-12-01T07:26:25.414Z,31.40
2022-12-01T07:27:56.668Z,34.50
2022-12-01T07:29:27.989Z,36.96
2022-12-01T07:30:59.302Z,33.22
2022-12-01T07:32:35.815Z,35.52
2022-12-01T07:34:07.514Z,32.13
2022-12-01T07:35:38.929Z,32.70
2022-12-01T07:37:10.524Z,32.34
2022-12-01T07:38:41.824Z,29.03
2022-12-01T07:40:13.217Z,27.70
2022-12-01T07:41:44.494Z,25.74
2022-12-01T07:43:15.830Z,25.06
2022-12-01T07:44:47.171Z,28.86
2022-12-01T07:46:22.685Z,26.75
2022-12-01T07:47:55.495Z,27.49
2022-12-01T07:49:26.794Z,24.98
2022-12-01T07:50:58.214Z,21.43
2022-12-01T07:52:29.475Z,15.79
2022-12-01T07:54:00.912Z,22.23
2022-12-01T07:55:32.263Z,22.45
2022-12-01T07:57:03.647Z,22.48
2022-12-01T07:58:34.940Z,23.76
2022-12-01T08:00:11.352Z,21.71
2022-12-01T08:01:44.695Z,23.38
2022-12-01T08:03:16.429Z,24.07
2022-12-01T08:04:48.021Z,20.87
2022-12-01T08:06:19.297Z,26.62
2022-12-01T08:07:50.575Z,26.32
2022-12-01T08:09:21.811Z,23.38
2022-12-01T08:10:53.297Z,25.22
2022-12-01T08:12:24.796Z,23.21
2022-12-01T08:13:56.148Z,20.69
2022-12-01T08:15:27.528Z,23.93
2022-12-01T08:16:59.071Z,20.99
2022-12-01T08:18:30.354Z,23.51
2022-12-01T08:20:01.842Z,22.44
2022-12-01T08:21:33.025Z,25.11
2022-12-01T08:23:04.365Z,23.16
2022-12-01T08:24:35.711Z,25.30
2022-12-01T08:26:06.955Z,24.77
2022-12-01T08:27:38.184Z,24.64
2022-12-01T08:29:09.424Z,25.10
2022-12-01T08:30:40.703Z,22.91
2022-12-01T08:32:12.039Z,25.15
2022-12-01T08:33:43.423Z,26.37
2022-12-01T08:35:14.749Z,29.08
2022-12-01T08:36:46.168Z,32.09
2022-12-01T08:38:17.562Z,30.06
2022-12-01T08:39:49.331Z,30.91
2022-12-01T08:41:20.863Z,29.39
2022-12-01T08:42:52.132Z,28.90
2022-12-01T08:44:23.485Z,30.23
2022-12-01T08:45:54.855Z,27.93
2022-12-01T08:47:26.170Z,24.62
2022-12-01T08:48:58.069Z,25.60
2022-12-01T08:50:29.518Z,25.39
2022-12-01T08:52:05.758Z,24.59
2022-12-01T08:53:40.208Z,24.90
2022-12-01T08:55:15.284Z,23.54
2022-12-01T08:56:46.521Z,21.32
2022-12-01T08:58:17.906Z,19.41
2022-12-01T08:59:49.382Z,20.78
2022-12-01T09:01:20.733Z,21.16
2022-12-01T09:02:51.975Z,22.62
2022-12-01T09:04:23.249Z,20.84
2022-12-01T09:05:54.446Z,22.48
2022-12-01T09:07:26.641Z,22.88
2022-12-01T09:08:58.320Z,22.28
2022-12-01T09:10:29.531Z,22.45
2022-12-01T09:12:00.893Z,23.28
2022-12-01T09:13:32.411Z,22.61
2022-12-01T09:15:03.992Z,23.30
2022-12-01T09:16:35.494Z,22.40
2022-12-01T09:18:06.809Z,22.45
2022-12-01T09:19:37.974Z,21.93
2022-12-01T09:21:09.219Z,21.88
2022-12-01T09:22:40.756Z,22.19
2022-12-01T09:24:12.379Z,23.22
2022-12-01T09:25:43.761Z,23.57
2022-12-01T09:27:14.986Z,22.63
2022-12-01T09:28:46.231Z,23.28
2022-12-01T09:30:17.512Z,23.06
2022-12-01T09:31:48.910Z,23.91
2022-12-01T09:33:20.225Z,23.42
2022-12-01T09:34:51.574Z,23.87
2022-12-01T09:36:22.918Z,23.57
2022-12-01T09:37:54.254Z,24.30
2022-12-01T09:39:25.766Z,24.79
2022-12-01T09:40:57.326Z,25.83
2022-12-01T09:42:33.915Z,25.89
2022-12-01T09:44:06.735Z,27.75
2022-12-01T09:45:38.124Z,27.70
2022-12-01T09:47:09.409Z,29.58
2022-12-01T09:48:40.807Z,30.86
2022-12-01T09:50:12.048Z,32.19
2022-12-01T09:51:43.615Z,32.81
2022-12-01T09:53:15.066Z,32.13
2022-12-01T09:54:46.401Z,31.60
2022-12-01T09:56:17.637Z,32.45
2022-12-01T09:57:49.000Z,30.91
2022-12-01T09:59:20.212Z,31.25
2022-12-01T10:00:51.524Z,32.91
2022-12-01T10:02:23.154Z,34.04
2022-12-01T10:03:54.475Z,34.74
2022-12-01T10:05:25.920Z,36.03
2022-12-01T10:06:57.355Z,33.18
2022-12-01T10:08:28.759Z,33.35
2022-12-01T10:10:00.099Z,34.40
2022-12-01T10:11:31.338Z,36.17
2022-12-01T10:13:02.745Z,32.44
2022-12-01T10:14:34.336Z,34.63
2022-12-01T10:16:05.745Z,36.20
2022-12-01T10:17:37.339Z,37.09
2022-12-01T10:19:08.613Z,36.76
2022-12-01T10:20:40.180Z,34.64
2022-12-01T10:22:11.436Z,38.10
2022-12-01T10:23:42.815Z,39.59
2022-12-01T10:25:14.137Z,41.07
2022-12-01T10:26:45.416Z,41.20
2022-12-01T10:28:16.734Z,41.46
2022-12-01T10:29:48.228Z,41.54
2022-12-01T10:31:19.839Z,42.22
2022-12-01T10:32:51.055Z,44.22
2022-12-01T10:34:22.385Z,44.75
2022-12-01T10:35:53.725Z,43.58
2022-12-01T10:37:25.129Z,45.03
2022-12-01T10:38:56.419Z,45.48
2022-12-01T10:40:27.663Z,45.07
2022-12-01T10:41:59.006Z,45.32
2022-12-01T10:43:30.429Z,42.32
2022-12-01T10:45:01.824Z,44.48
2022-12-01T10:46:33.092Z,45.11
2022-12-01T10:48:04.410Z,46.11
2022-12-01T10:49:35.758Z,46.95
2022-12-01T10:51:06.955Z,47.72
2022-12-01T10:52:38.239Z,47.45
2022-12-01T10:54:09.768Z,48.43
2022-12-01T10:55:48.034Z,47.27
2022-12-01T10:57:19.687Z,47.45
2022-12-01T10:58:51.058Z,48.06
2022-12-01T11:00:51.370Z,48.80
2022-12-01T11:02:29.326Z,45.76
2022-12-01T11:04:00.788Z,47.38
2022-12-01T11:05:32.062Z,47.26
2022-12-01T11:07:03.511Z,46.95
2022-12-01T11:08:34.901Z,48.19
2022-12-01T11:10:06.491Z,47.68
2022-12-01T11:11:37.784Z,46.40
2022-12-01T11:13:09.202Z,47.53
2022-12-01T11:14:40.951Z,47.05
2022-12-01T11:16:12.355Z,47.84
2022-12-01T11:17:43.774Z,46.59
2022-12-01T11:19:15.212Z,45.77
2022-12-01T11:20:46.560Z,47.83
2022-12-01T11:22:17.933Z,46.94
2022-12-01T11:23:49.305Z,47.89
2022-12-01T11:25:20.956Z,45.54
2022-12-01T11:26:52.428Z,46.71
2022-12-01T11:28:23.948Z,48.58
2022-12-01T11:29:55.144Z,46.14
2022-12-01T11:31:26.402Z,47.00
2022-12-01T11:32:57.755Z,46.15
2022-12-01T11:34:28.923Z,44.17
2022-12-01T11:36:00.415Z,45.23
2022-12-01T11:37:31.797Z,45.05
2022-12-01T11:39:03.299Z,45.02
2022-12-01T11:40:34.544Z,46.89
2022-12-01T11:42:05.729Z,46.78
2022-12-01T11:43:37.141Z,46.92
2022-12-01T11:45:08.643Z,44.30
2022-12-01T11:46:46.312Z,41.58
2022-12-01T11:48:21.938Z,43.32
2022-12-01T11:49:54.136Z,46.56
2022-12-01T11:51:25.430Z,45.70
2022-12-01T11:52:56.702Z,46.80
2022-12-01T11:54:28.064Z,46.32
2022-12-01T11:55:59.359Z,45.82
2022-12-01T11:57:34.823Z,46.27
2022-12-01T11:59:06.510Z,44.01
2022-12-01T12:00:37.785Z,43.20
2022-12-01T12:02:09.481Z,43.10
2022-12-01T12:03:41.012Z,44.57
2022-12-01T12:05:12.338Z,43.29
2022-12-01T12:06:43.549Z,42.84
2022-12-01T12:08:14.888Z,43.24
2022-12-01T12:09:46.544Z,42.36
2022-12-01T12:11:18.003Z,45.12
2022-12-01T12:12:49.250Z,45.24
2022-12-01T12:14:20.604Z,46.89
2022-12-01T12:15:52.283Z,45.69
2022-12-01T12:17:23.833Z,44.82
2022-12-01T12:18:55.466Z,44.24
2022-12-01T12:20:26.766Z,43.06
2022-12-01T12:21:58.227Z,43.65
2022-12-01T12:23:29.712Z,41.39
2022-12-01T12:25:00.945Z,43.61
2022-12-01T12:26:32.303Z,41.54
2022-12-01T12:28:03.792Z,42.53
2022-12-01T12:29:35.034Z,42.85
2022-12-01T12:31:06.477Z,41.18
2022-12-01T12:32:38.103Z,44.85
2022-12-01T12:34:09.412Z,44.04
2022-12-01T12:35:40.682Z,37.95
2022-12-01T12:37:11.915Z,41.77
2022-12-01T12:38:43.218Z,44.15
2022-12-01T12:40:14.577Z,39.61
2022-12-01T12:41:45.923Z,44.51
2022-12-01T12:43:17.405Z,47.71
2022-12-01T12:44:48.706Z,48.39
2022-12-01T12:46:19.966Z,47.69
2022-12-01T12:47:51.419Z,47.25
2022-12-01T12:49:22.624Z,46.11
2022-12-01T12:50:54.016Z,44.22
2022-12-01T12:52:25.355Z,43.83
2022-12-01T12:53:56.967Z,43.50
2022-12-01T12:55:28.353Z,45.53
2022-12-01T12:57:04.939Z,44.35
2022-12-01T12:58:36.277Z,43.07
2022-12-01T13:00:17.566Z,43.79
2022-12-01T13:01:48.826Z,41.47
2022-12-01T13:03:20.117Z,44.39
2022-12-01T13:04:51.504Z,39.79
2022-12-01T13:06:22.862Z,39.13
2022-12-01T13:07:54.216Z,41.98
2022-12-01T13:09:30.575Z,41.60
2022-12-01T13:11:02.149Z,40.83
2022-12-01T13:12:33.397Z,37.82
2022-12-01T13:14:04.799Z,41.22
2022-12-01T13:15:36.166Z,40.96
2022-12-01T13:17:07.463Z,42.14
2022-12-01T13:18:39.162Z,42.97
2022-12-01T13:20:10.445Z,43.31
2022-12-01T13:21:41.723Z,41.80
2022-12-01T13:23:13.076Z,41.37
2022-12-01T13:24:44.563Z,44.86
2022-12-01T13:26:15.934Z,43.51
2022-12-01T13:27:47.380Z,42.50
2022-12-01T13:29:18.652Z,41.69
2022-12-01T13:30:49.950Z,38.56
2022-12-01T13:32:21.142Z,42.97
2022-12-01T13:33:52.540Z,41.59
2022-12-01T13:35:24.056Z,42.39
2022-12-01T13:36:55.469Z,40.84
2022-12-01T13:38:26.694Z,41.61
2022-12-01T13:42:47.884Z,40.40
2022-12-01T13:44:29.585Z,40.37
2022-12-01T13:46:01.147Z,39.91
2022-12-01T13:47:33.050Z,41.45
2022-12-01T13:49:04.906Z,39.74
2022-12-01T13:50:36.754Z,38.81
2022-12-01T13:52:08.033Z,41.17
2022-12-01T13:54:14.550Z,37.43
2022-12-01T13:55:50.402Z,39.80
2022-12-01T13:57:22.265Z,41.35
2022-12-01T13:58:53.796Z,37.45
2022-12-01T14:00:56.165Z,40.47
2022-12-01T14:02:27.995Z,38.54
2022-12-01T14:04:14.733Z,36.17
2022-12-01T14:05:46.603Z,38.16
2022-12-01T14:07:38.418Z,37.70
2022-12-01T14:09:10.053Z,38.91
2022-12-01T14:10:46.865Z,39.42
2022-12-01T14:12:18.808Z,40.88
2022-12-01T14:13:50.160Z,39.16
2022-12-01T14:15:31.543Z,37.90
2022-12-01T14:17:03.222Z,37.49
2022-12-01T14:18:34.846Z,39.10
2022-12-01T14:20:26.694Z,38.58
2022-12-01T14:21:58.866Z,38.88
2022-12-01T14:23:30.545Z,39.97
2022-12-01T14:25:20.991Z,34.90
2022-12-01T14:26:53.092Z,39.11
2022-12-01T14:28:25.502Z,39.11
2022-12-01T14:30:19.607Z,40.62
2022-12-01T14:31:52.555Z,40.54
2022-12-01T14:33:34.095Z,40.13
2022-12-01T14:35:37.223Z,41.06
2022-12-01T14:37:09.209Z,39.22
2022-12-01T14:38:40.608Z,33.47
2022-12-01T14:40:12.135Z,36.13
2022-12-01T14:41:43.611Z,35.63
2022-12-01T14:43:32.629Z,39.27
2022-12-01T14:45:13.961Z,39.83
2022-12-01T14:46:45.641Z,41.90
2022-12-01T14:48:36.133Z,41.07
2022-12-01T14:50:32.975Z,40.12
2022-12-01T14:52:47.331Z,32.33
2022-12-01T14:54:19.264Z,39.83
2022-12-01T14:56:14.593Z,37.27
2022-12-01T14:58:06.552Z,37.83
2022-12-01T14:59:38.678Z,37.37
2022-12-01T15:01:10.845Z,34.96
2022-12-01T15:02:43.361Z,36.12
2022-12-01T15:04:15.413Z,38.61
2022-12-01T15:05:47.516Z,35.07
2022-12-01T15:07:19.427Z,39.48
2022-12-01T15:09:10.656Z,32.54
2022-12-01T15:13:07.885Z,36.32
2022-12-01T15:14:39.166Z,39.29
2022-12-01T15:16:10.486Z,38.75
2022-12-01T15:17:41.707Z,38.23
2022-12-01T15:19:56.425Z,40.04
2022-12-01T15:23:49.809Z,37.82
2022-12-01T15:25:47.850Z,36.06
2022-12-01T15:27:19.233Z,39.43
2022-12-01T15:28:51.356Z,39.66
2022-12-01T15:30:23.175Z,40.04
2022-12-01T15:31:55.238Z,40.85
2022-12-01T15:33:29.048Z,41.00
2022-12-01T15:35:03.812Z,37.17
2022-12-01T15:36:35.648Z,36.83
2022-12-01T15:38:07.085Z,30.14
2022-12-01T15:39:38.721Z,32.53
2022-12-01T15:41:30.243Z,39.17
2022-12-01T15:43:02.290Z,39.22
2022-12-01T15:44:34.481Z,40.41
2022-12-01T15:46:06.336Z,38.16
2022-12-01T15:47:37.862Z,41.52
2022-12-01T15:49:09.117Z,42.77
2022-12-01T15:50:46.005Z,43.98
2022-12-01T15:52:17.688Z,40.61
2022-12-01T15:53:49.168Z,39.63
2022-12-01T15:55:20.404Z,41.00
2022-12-01T15:56:51.857Z,43.51
2022-12-01T15:58:23.272Z,39.63
2022-12-01T15:59:54.500Z,39.37
2022-12-01T16:01:25.934Z,35.77
2022-12-01T16:02:57.260Z,37.82
2022-12-01T16:04:28.648Z,42.01
2022-12-01T16:05:59.891Z,42.59
2022-12-01T16:07:50.258Z,41.81
2022-12-01T16:09:42.504Z,43.39
2022-12-01T16:11:13.811Z,43.51
2022-12-01T16:12:45.068Z,43.19
2022-12-01T16:14:16.401Z,45.09
2022-12-01T16:15:47.987Z,42.13
2022-12-01T16:17:19.404Z,44.20
2022-12-01T16:18:50.728Z,39.50
2022-12-01T16:20:22.050Z,41.30
2022-12-01T16:21:53.405Z,43.95
2022-12-01T16:23:25.064Z,43.47
2022-12-01T16:24:56.475Z,40.20
2022-12-01T16:26:28.272Z,42.15
2022-12-01T16:27:59.641Z,42.88
2022-12-01T16:29:30.965Z,40.70
2022-12-01T16:31:04.823Z,41.78
2022-12-01T16:32:37.012Z,39.71
2022-12-01T16:34:30.564Z,42.07
2022-12-01T16:36:15.803Z,41.61
2022-12-01T16:37:47.064Z,40.32
2022-12-01T16:39:18.248Z,38.03
2022-12-01T16:40:49.542Z,35.56
2022-12-01T16:42:20.780Z,35.38
2022-12-01T16:44:20.336Z,33.67
2022-12-01T16:45:58.781Z,34.94
2022-12-01T16:47:30.029Z,34.72
2022-12-01T16:49:01.282Z,34.57
2022-12-01T16:50:32.740Z,34.84
2022-12-01T16:52:22.124Z,34.69
2022-12-01T16:54:14.164Z,33.91
2022-12-01T16:55:45.695Z,33.07
2022-12-01T16:57:17.439Z,33.56
2022-12-01T16:58:48.629Z,32.47
2022-12-01T17:00:20.001Z,31.92
2022-12-01T17:01:51.431Z,33.23
2022-12-01T17:03:22.727Z,33.70
2022-12-01T17:04:53.973Z,32.53
2022-12-01T17:06:25.335Z,32.98
2022-12-01T17:07:56.770Z,32.88
2022-12-01T17:10:43.626Z,33.68
2022-12-01T17:12:15.026Z,34.18
2022-12-01T17:13:46.505Z,33.10
2022-12-01T17:15:18.099Z,33.73
2022-12-01T17:16:49.835Z,34.26
2022-12-01T17:18:21.372Z,33.98
2022-12-01T17:19:52.887Z,34.04
2022-12-01T17:21:24.188Z,34.74
2022-12-01T17:22:55.571Z,34.17
2022-12-01T17:24:26.811Z,33.72
2022-12-01T17:25:58.185Z,33.96
2022-12-01T17:27:29.565Z,33.13
2022-12-01T17:29:00.761Z,32.34
2022-12-01T17:30:31.998Z,33.95
2022-12-01T17:32:03.442Z,34.94
2022-12-01T17:33:34.623Z,35.21
2022-12-01T17:35:05.852Z,35.15
2022-12-01T17:36:37.527Z,34.86
2022-12-01T17:38:08.944Z,33.53
2022-12-01T17:39:40.526Z,34.94
2022-12-01T17:41:11.824Z,34.25
2022-12-01T17:42:48.563Z,34.36
2022-12-01T17:44:21.570Z,34.53
2022-12-01T17:45:52.935Z,34.06
2022-12-01T17:47:24.148Z,33.42
2022-12-01T17:48:55.405Z,33.33
2022-12-01T17:50:26.753Z,34.91
2022-12-01T17:51:58.483Z,31.89
2022-12-01T17:53:29.986Z,33.91
2022-12-01T17:55:01.573Z,33.06
2022-12-01T17:56:32.915Z,33.58
2022-12-01T17:58:04.312Z,33.38
2022-12-01T17:59:35.515Z,31.82
2022-12-01T18:01:06.694Z,31.66
2022-12-01T18:02:37.990Z,31.28
2022-12-01T18:04:09.266Z,31.96
2022-12-01T18:05:40.630Z,31.15
2022-12-01T18:07:11.891Z,31.23
2022-12-01T18:08:43.437Z,30.32
2022-12-01T18:10:14.927Z,30.28
2022-12-01T18:11:46.671Z,28.93
2022-12-01T18:13:20.328Z,28.53
2022-12-01T18:14:52.833Z,29.30
2022-12-01T18:16:24.325Z,28.96
2022-12-01T18:18:07.904Z,28.83
2022-12-01T18:19:40.848Z,29.09
2022-12-01T18:21:17.753Z,29.27
2022-12-01T18:22:49.744Z,27.35
2022-12-01T18:24:43.145Z,27.12
2022-12-01T18:26:39.043Z,27.58
2022-12-01T18:28:35.443Z,26.74
2022-12-01T18:30:06.856Z,25.97
2022-12-01T18:31:38.107Z,24.89
2022-12-01T18:33:09.814Z,23.53
2022-12-01T18:34:41.480Z,23.34
2022-12-01T18:36:13.134Z,22.44
2022-12-01T18:37:45.119Z,23.49
2022-12-01T18:39:16.470Z,21.18
2022-12-01T18:40:48.044Z,22.94
2022-12-01T18:42:19.746Z,22.54
2022-12-01T18:44:12.112Z,22.64
2022-12-01T18:46:05.250Z,23.13
2022-12-01T18:47:37.193Z,23.16
2022-12-01T18:49:19.890Z,22.89
2022-12-01T18:51:01.245Z,21.86
2022-12-01T18:52:32.677Z,22.07
2022-12-01T18:54:04.189Z,21.96
2022-12-01T18:55:35.471Z,23.17
2022-12-01T18:57:06.890Z,24.70
2022-12-01T18:58:38.362Z,25.86
2022-12-01T19:00:09.733Z,25.36
2022-12-01T19:01:41.195Z,24.88
2022-12-01T19:03:12.527Z,24.80
2022-12-01T19:04:44.206Z,25.23
2022-12-01T19:06:15.422Z,26.11
2022-12-01T19:07:46.966Z,25.43
2022-12-01T19:09:18.490Z,26.32
2022-12-01T19:10:50.009Z,25.81
2022-12-01T19:12:21.306Z,25.41
2022-12-01T19:13:52.635Z,25.78
2022-12-01T19:15:24.084Z,26.40
2022-12-01T19:16:55.548Z,26.81
2022-12-01T19:18:26.925Z,26.61
2022-12-01T19:20:03.712Z,26.29
2022-12-01T19:21:35.172Z,26.84
2022-12-01T19:23:06.645Z,26.53
2022-12-01T19:24:37.928Z,26.11
2022-12-01T19:26:09.546Z,25.50
2022-12-01T19:27:40.801Z,25.11
2022-12-01T19:29:12.048Z,26.22
2022-12-01T19:30:48.023Z,25.85
2022-12-01T19:32:19.646Z,23.69
2022-12-01T19:33:51.045Z,20.50
2022-12-01T19:35:22.403Z,23.35
2022-12-01T19:36:53.965Z,19.54
2022-12-01T19:38:25.197Z,21.03
2022-12-01T19:39:56.840Z,20.03
2022-12-01T19:41:28.451Z,21.40
2022-12-01T19:42:59.878Z,21.37
2022-12-01T19:44:31.241Z,21.90
2022-12-01T19:46:02.468Z,20.07
2022-12-01T19:47:33.990Z,22.70
2022-12-01T19:49:05.496Z,23.95
2022-12-01T19:50:36.761Z,23.60
2022-12-01T19:52:08.169Z,24.80
2022-12-01T19:53:39.589Z,24.36
2022-12-01T19:55:11.339Z,24.21
2022-12-01T19:56:42.922Z,23.17
2022-12-01T19:58:14.482Z,23.30
2022-12-01T19:59:45.818Z,23.82
2022-12-01T20:01:17.412Z,22.19
2022-12-01T20:02:49.039Z,24.00
2022-12-01T20:04:20.562Z,24.68
2022-12-01T20:05:51.862Z,25.31
2022-12-01T20:07:23.220Z,25.42
2022-12-01T20:08:54.645Z,24.66